sensor_id;sensor_type;location;lat;lon;timestamp;temperature;humidity
7155;DHT22;3619;53.784;10.440;2022-07-05T00:00:24;14.00;99.90
7155;DHT22;3619;53.784;10.440;2022-07-05T00:05:29;14.00;99.90
7155;DHT22;3619;53.784;10.440;2022-07-05T00:08:05;14.00;99.90
7155;DHT22;3619;53.784;10.440;2022-07-05T00:10:37;13.90;99.90
7155;DHT22;3619;53.784;10.440;2022-07-05T00:13:10;13.80;99.90
7155;DHT22;3619;53.784;10.440;2022-07-05T00:16:13;13.70;99.90
7155;DHT22;3619;53.784;10.440;2022-07-05T00:18:51;13.70;99.90
7155;DHT22;3619;53.784;10.440;2022-07-05T00:21:19;13.70;99.90
7155;DHT22;3619;53.784;10.440;2022-07-05T00:23:46;13.60;99.90
7155;DHT22;3619;53.784;10.440;2022-07-05T00:26:20;13.60;99.90
7155;DHT22;3619;53.784;10.440;2022-07-05T00:29:02;13.60;99.90
7155;DHT22;3619;53.784;10.440;2022-07-05T00:31:31;13.60;99.90
7155;DHT22;3619;53.784;10.440;2022-07-05T00:33:59;13.50;99.90
7155;DHT22;3619;53.784;10.440;2022-07-05T00:36:26;13.60;99.90
7155;DHT22;3619;53.784;10.440;2022-07-05T00:38:57;13.50;99.90
7155;DHT22;3619;53.784;10.440;2022-07-05T00:41:27;13.50;99.90
7155;DHT22;3619;53.784;10.440;2022-07-05T00:43:58;13.50;99.90
7155;DHT22;3619;53.784;10.440;2022-07-05T00:46:47;13.50;99.90
7155;DHT22;3619;53.784;10.440;2022-07-05T00:49:14;13.50;99.90
7155;DHT22;3619;53.784;10.440;2022-07-05T00:51:42;13.60;99.90
7155;DHT22;3619;53.784;10.440;2022-07-05T00:54:09;13.60;99.90
7155;DHT22;3619;53.784;10.440;2022-07-05T00:56:40;13.60;99.90
7155;DHT22;3619;53.784;10.440;2022-07-05T00:59:30;13.50;99.90
7155;DHT22;3619;53.784;10.440;2022-07-05T01:02:01;13.50;99.90
7155;DHT22;3619;53.784;10.440;2022-07-05T01:04:28;13.50;99.90
7155;DHT22;3619;53.784;10.440;2022-07-05T01:07:11;13.40;99.90
7155;DHT22;3619;53.784;10.440;2022-07-05T01:09:41;13.50;99.90
7155;DHT22;3619;53.784;10.440;2022-07-05T01:12:15;13.40;99.90
7155;DHT22;3619;53.784;10.440;2022-07-05T01:14:45;13.40;99.90
7155;DHT22;3619;53.784;10.440;2022-07-05T01:17:33;13.40;99.90
7155;DHT22;3619;53.784;10.440;2022-07-05T01:20:01;13.30;99.90
7155;DHT22;3619;53.784;10.440;2022-07-05T01:22:46;13.40;99.90
7155;DHT22;3619;53.784;10.440;2022-07-05T01:25:19;13.30;99.90
7155;DHT22;3619;53.784;10.440;2022-07-05T01:27:53;13.30;99.90
7155;DHT22;3619;53.784;10.440;2022-07-05T01:30:24;13.20;99.90
7155;DHT22;3619;53.784;10.440;2022-07-05T01:32:52;13.20;99.90
7155;DHT22;3619;53.784;10.440;2022-07-05T01:35:28;13.10;99.90
7155;DHT22;3619;53.784;10.440;2022-07-05T01:37:59;13.10;99.90
7155;DHT22;3619;53.784;10.440;2022-07-05T01:40:27;13.10;99.90
7155;DHT22;3619;53.784;10.440;2022-07-05T01:42:54;13.10;99.90
7155;DHT22;3619;53.784;10.440;2022-07-05T01:45:31;13.10;99.90
7155;DHT22;3619;53.784;10.440;2022-07-05T01:48:26;13.10;99.90
7155;DHT22;3619;53.784;10.440;2022-07-05T01:51:01;13.00;99.90
7155;DHT22;3619;53.784;10.440;2022-07-05T01:54:02;13.00;99.90
7155;DHT22;3619;53.784;10.440;2022-07-05T01:56:31;13.00;99.90
7155;DHT22;3619;53.784;10.440;2022-07-05T01:59:01;13.00;99.90
7155;DHT22;3619;53.784;10.440;2022-07-05T02:01:43;12.90;99.90
7155;DHT22;3619;53.784;10.440;2022-07-05T02:04:37;12.90;99.90
7155;DHT22;3619;53.784;10.440;2022-07-05T02:07:08;12.90;99.90
7155;DHT22;3619;53.784;10.440;2022-07-05T02:09:49;12.90;99.90
7155;DHT22;3619;53.784;10.440;2022-07-05T02:12:17;12.90;99.90
7155;DHT22;3619;53.784;10.440;2022-07-05T02:14:44;12.90;99.90
7155;DHT22;3619;53.784;10.440;2022-07-05T02:17:12;12.90;99.90
7155;DHT22;3619;53.784;10.440;2022-07-05T02:19:53;12.90;99.90
7155;DHT22;3619;53.784;10.440;2022-07-05T02:22:39;12.90;99.90
7155;DHT22;3619;53.784;10.440;2022-07-05T02:25:18;12.80;99.90
7155;DHT22;3619;53.784;10.440;2022-07-05T02:27:49;12.80;99.90
7155;DHT22;3619;53.784;10.440;2022-07-05T02:30:19;12.80;99.90
7155;DHT22;3619;53.784;10.440;2022-07-05T02:32:46;12.80;99.90
7155;DHT22;3619;53.784;10.440;2022-07-05T02:35:14;12.80;99.90
7155;DHT22;3619;53.784;10.440;2022-07-05T02:37:41;12.80;99.90
7155;DHT22;3619;53.784;10.440;2022-07-05T02:40:13;12.70;99.90
7155;DHT22;3619;53.784;10.440;2022-07-05T02:42:41;12.70;99.90
7155;DHT22;3619;53.784;10.440;2022-07-05T02:45:10;12.70;99.90
7155;DHT22;3619;53.784;10.440;2022-07-05T02:47:40;12.70;99.90
7155;DHT22;3619;53.784;10.440;2022-07-05T02:50:09;12.70;99.90
7155;DHT22;3619;53.784;10.440;2022-07-05T02:52:37;12.70;99.90
7155;DHT22;3619;53.784;10.440;2022-07-05T02:55:05;12.70;99.90
7155;DHT22;3619;53.784;10.440;2022-07-05T02:57:36;12.70;99.90
7155;DHT22;3619;53.784;10.440;2022-07-05T03:00:06;12.70;99.90
7155;DHT22;3619;53.784;10.440;2022-07-05T03:02:34;12.60;99.90
7155;DHT22;3619;53.784;10.440;2022-07-05T03:05:04;12.60;99.90
7155;DHT22;3619;53.784;10.440;2022-07-05T03:07:33;12.60;99.90
7155;DHT22;3619;53.784;10.440;2022-07-05T03:10:17;12.60;99.90
7155;DHT22;3619;53.784;10.440;2022-07-05T03:15:17;12.60;99.90
7155;DHT22;3619;53.784;10.440;2022-07-05T03:17:45;12.60;99.90
7155;DHT22;3619;53.784;10.440;2022-07-05T03:20:13;12.70;99.90
7155;DHT22;3619;53.784;10.440;2022-07-05T03:22:41;12.70;99.90
7155;DHT22;3619;53.784;10.440;2022-07-05T03:25:18;12.70;99.90
7155;DHT22;3619;53.784;10.440;2022-07-05T03:27:52;12.60;99.90
7155;DHT22;3619;53.784;10.440;2022-07-05T03:33:36;12.60;99.90
7155;DHT22;3619;53.784;10.440;2022-07-05T03:36:04;12.70;99.90
7155;DHT22;3619;53.784;10.440;2022-07-05T03:38:32;12.60;99.90
7155;DHT22;3619;53.784;10.440;2022-07-05T03:41:02;12.70;99.90
7155;DHT22;3619;53.784;10.440;2022-07-05T03:43:49;12.70;99.90
7155;DHT22;3619;53.784;10.440;2022-07-05T03:46:19;12.70;99.90
7155;DHT22;3619;53.784;10.440;2022-07-05T03:48:49;12.70;99.90
7155;DHT22;3619;53.784;10.440;2022-07-05T03:51:18;12.70;99.90
7155;DHT22;3619;53.784;10.440;2022-07-05T03:53:50;12.70;99.90
7155;DHT22;3619;53.784;10.440;2022-07-05T03:56:20;12.70;99.90
7155;DHT22;3619;53.784;10.440;2022-07-05T03:58:52;12.70;99.90
7155;DHT22;3619;53.784;10.440;2022-07-05T04:01:20;12.70;99.90
7155;DHT22;3619;53.784;10.440;2022-07-05T04:03:49;12.70;99.90
7155;DHT22;3619;53.784;10.440;2022-07-05T04:06:17;12.70;99.90
7155;DHT22;3619;53.784;10.440;2022-07-05T04:08:45;12.80;99.90
7155;DHT22;3619;53.784;10.440;2022-07-05T04:11:41;12.70;99.90
7155;DHT22;3619;53.784;10.440;2022-07-05T04:14:09;12.80;99.90
7155;DHT22;3619;53.784;10.440;2022-07-05T04:16:40;12.90;99.90
7155;DHT22;3619;53.784;10.440;2022-07-05T04:19:09;12.90;99.90
7155;DHT22;3619;53.784;10.440;2022-07-05T04:21:39;13.00;99.90
7155;DHT22;3619;53.784;10.440;2022-07-05T04:24:07;13.10;99.90
7155;DHT22;3619;53.784;10.440;2022-07-05T04:26:38;13.10;99.90
7155;DHT22;3619;53.784;10.440;2022-07-05T04:29:11;13.20;99.90
7155;DHT22;3619;53.784;10.440;2022-07-05T04:31:38;13.30;99.90
7155;DHT22;3619;53.784;10.440;2022-07-05T04:34:06;13.30;99.90
7155;DHT22;3619;53.784;10.440;2022-07-05T04:36:38;13.30;99.90
7155;DHT22;3619;53.784;10.440;2022-07-05T04:39:08;13.40;99.90
7155;DHT22;3619;53.784;10.440;2022-07-05T04:41:38;13.50;99.90
7155;DHT22;3619;53.784;10.440;2022-07-05T04:44:18;13.60;99.90
7155;DHT22;3619;53.784;10.440;2022-07-05T04:46:45;13.70;99.90
7155;DHT22;3619;53.784;10.440;2022-07-05T04:49:15;13.70;99.90
7155;DHT22;3619;53.784;10.440;2022-07-05T04:51:44;13.80;99.90
7155;DHT22;3619;53.784;10.440;2022-07-05T04:54:13;13.70;99.90
7155;DHT22;3619;53.784;10.440;2022-07-05T04:56:50;13.70;99.90
7155;DHT22;3619;53.784;10.440;2022-07-05T04:59:21;13.70;99.90
7155;DHT22;3619;53.784;10.440;2022-07-05T05:01:48;13.80;99.90
7155;DHT22;3619;53.784;10.440;2022-07-05T05:04:19;13.90;99.90
7155;DHT22;3619;53.784;10.440;2022-07-05T05:06:50;13.90;99.90
7155;DHT22;3619;53.784;10.440;2022-07-05T05:09:17;14.10;99.90
7155;DHT22;3619;53.784;10.440;2022-07-05T05:11:44;14.20;99.90
7155;DHT22;3619;53.784;10.440;2022-07-05T05:14:15;14.20;99.90
7155;DHT22;3619;53.784;10.440;2022-07-05T05:16:54;14.40;99.90
7155;DHT22;3619;53.784;10.440;2022-07-05T05:20:11;14.70;99.90
7155;DHT22;3619;53.784;10.440;2022-07-05T05:23:06;14.90;99.90
7155;DHT22;3619;53.784;10.440;2022-07-05T05:26:05;15.10;99.90
7155;DHT22;3619;53.784;10.440;2022-07-05T05:28:33;15.20;99.90
7155;DHT22;3619;53.784;10.440;2022-07-05T05:31:20;15.20;99.90
7155;DHT22;3619;53.784;10.440;2022-07-05T05:33:53;15.40;99.90
7155;DHT22;3619;53.784;10.440;2022-07-05T05:36:25;15.60;99.90
7155;DHT22;3619;53.784;10.440;2022-07-05T05:38:56;15.70;99.90
7155;DHT22;3619;53.784;10.440;2022-07-05T05:41:27;15.60;99.90
7155;DHT22;3619;53.784;10.440;2022-07-05T05:43:59;15.60;99.90
7155;DHT22;3619;53.784;10.440;2022-07-05T05:46:36;15.50;99.90
7155;DHT22;3619;53.784;10.440;2022-07-05T05:49:06;15.50;99.90
7155;DHT22;3619;53.784;10.440;2022-07-05T05:51:33;15.40;99.90
7155;DHT22;3619;53.784;10.440;2022-07-05T05:54:02;15.30;99.90
7155;DHT22;3619;53.784;10.440;2022-07-05T05:56:29;15.30;99.90
7155;DHT22;3619;53.784;10.440;2022-07-05T05:58:59;15.20;99.90
7155;DHT22;3619;53.784;10.440;2022-07-05T06:01:31;15.20;99.90
7155;DHT22;3619;53.784;10.440;2022-07-05T06:03:59;15.20;99.90
7155;DHT22;3619;53.784;10.440;2022-07-05T06:06:28;15.20;99.90
7155;DHT22;3619;53.784;10.440;2022-07-05T06:08:58;15.20;99.90
7155;DHT22;3619;53.784;10.440;2022-07-05T06:11:27;15.20;99.90
7155;DHT22;3619;53.784;10.440;2022-07-05T06:13:54;15.20;99.90
7155;DHT22;3619;53.784;10.440;2022-07-05T06:16:21;15.20;99.90
7155;DHT22;3619;53.784;10.440;2022-07-05T06:18:48;15.30;99.90
7155;DHT22;3619;53.784;10.440;2022-07-05T06:21:18;15.30;99.90
7155;DHT22;3619;53.784;10.440;2022-07-05T06:23:45;15.50;99.90
7155;DHT22;3619;53.784;10.440;2022-07-05T06:26:12;15.50;99.90
7155;DHT22;3619;53.784;10.440;2022-07-05T06:28:41;15.60;99.90
7155;DHT22;3619;53.784;10.440;2022-07-05T06:31:10;15.70;99.90
7155;DHT22;3619;53.784;10.440;2022-07-05T06:33:37;15.80;99.90
7155;DHT22;3619;53.784;10.440;2022-07-05T06:36:07;15.80;99.90
7155;DHT22;3619;53.784;10.440;2022-07-05T06:38:34;16.00;99.90
7155;DHT22;3619;53.784;10.440;2022-07-05T06:41:02;16.00;99.90
7155;DHT22;3619;53.784;10.440;2022-07-05T06:43:30;16.00;99.90
7155;DHT22;3619;53.784;10.440;2022-07-05T06:46:00;16.10;99.90
7155;DHT22;3619;53.784;10.440;2022-07-05T06:48:39;16.20;99.90
7155;DHT22;3619;53.784;10.440;2022-07-05T06:51:07;16.30;99.90
7155;DHT22;3619;53.784;10.440;2022-07-05T06:53:34;16.30;99.90
7155;DHT22;3619;53.784;10.440;2022-07-05T06:56:01;16.40;99.90
7155;DHT22;3619;53.784;10.440;2022-07-05T06:58:38;16.60;99.90
7155;DHT22;3619;53.784;10.440;2022-07-05T07:01:08;16.60;99.90
7155;DHT22;3619;53.784;10.440;2022-07-05T07:03:35;16.60;99.90
7155;DHT22;3619;53.784;10.440;2022-07-05T07:06:02;16.60;99.90
7155;DHT22;3619;53.784;10.440;2022-07-05T07:08:30;16.60;99.90
7155;DHT22;3619;53.784;10.440;2022-07-05T07:11:15;16.70;99.90
7155;DHT22;3619;53.784;10.440;2022-07-05T07:13:56;16.60;99.90
7155;DHT22;3619;53.784;10.440;2022-07-05T07:16:25;16.50;99.90
7155;DHT22;3619;53.784;10.440;2022-07-05T07:18:53;16.50;99.90
7155;DHT22;3619;53.784;10.440;2022-07-05T07:21:20;16.60;99.90
7155;DHT22;3619;53.784;10.440;2022-07-05T07:23:47;16.60;99.90
7155;DHT22;3619;53.784;10.440;2022-07-05T07:26:14;16.60;99.90
7155;DHT22;3619;53.784;10.440;2022-07-05T07:28:41;16.70;99.90
7155;DHT22;3619;53.784;10.440;2022-07-05T07:31:09;16.80;99.90
7155;DHT22;3619;53.784;10.440;2022-07-05T07:33:37;16.80;99.90
7155;DHT22;3619;53.784;10.440;2022-07-05T07:36:05;16.80;99.90
7155;DHT22;3619;53.784;10.440;2022-07-05T07:38:34;16.90;99.90
7155;DHT22;3619;53.784;10.440;2022-07-05T07:41:02;17.10;99.90
7155;DHT22;3619;53.784;10.440;2022-07-05T07:43:30;17.30;99.90
7155;DHT22;3619;53.784;10.440;2022-07-05T07:45:58;17.80;99.90
7155;DHT22;3619;53.784;10.440;2022-07-05T07:48:25;17.90;99.90
7155;DHT22;3619;53.784;10.440;2022-07-05T07:50:55;17.70;99.90
7155;DHT22;3619;53.784;10.440;2022-07-05T07:53:23;17.50;99.90
7155;DHT22;3619;53.784;10.440;2022-07-05T07:55:50;17.50;99.90
7155;DHT22;3619;53.784;10.440;2022-07-05T07:58:24;17.40;99.90
7155;DHT22;3619;53.784;10.440;2022-07-05T08:00:51;17.50;99.90
7155;DHT22;3619;53.784;10.440;2022-07-05T08:03:19;17.50;99.90
7155;DHT22;3619;53.784;10.440;2022-07-05T08:05:46;17.50;99.90
7155;DHT22;3619;53.784;10.440;2022-07-05T08:08:16;17.40;99.90
7155;DHT22;3619;53.784;10.440;2022-07-05T08:10:43;17.50;99.90
7155;DHT22;3619;53.784;10.440;2022-07-05T08:13:10;17.80;99.90
7155;DHT22;3619;53.784;10.440;2022-07-05T08:15:37;18.30;99.90
7155;DHT22;3619;53.784;10.440;2022-07-05T08:18:06;18.40;99.90
7155;DHT22;3619;53.784;10.440;2022-07-05T08:20:50;18.60;99.90
7155;DHT22;3619;53.784;10.440;2022-07-05T08:23:36;18.90;99.90
7155;DHT22;3619;53.784;10.440;2022-07-05T08:26:03;19.10;99.90
7155;DHT22;3619;53.784;10.440;2022-07-05T08:28:30;19.10;99.90
7155;DHT22;3619;53.784;10.440;2022-07-05T08:30:59;19.10;99.90
7155;DHT22;3619;53.784;10.440;2022-07-05T08:33:26;19.00;99.90
7155;DHT22;3619;53.784;10.440;2022-07-05T08:35:54;18.80;99.90
7155;DHT22;3619;53.784;10.440;2022-07-05T08:38:21;18.20;99.90
7155;DHT22;3619;53.784;10.440;2022-07-05T08:40:56;18.20;99.90
7155;DHT22;3619;53.784;10.440;2022-07-05T08:43:25;18.20;99.90
7155;DHT22;3619;53.784;10.440;2022-07-05T08:46:01;18.00;99.90
7155;DHT22;3619;53.784;10.440;2022-07-05T08:48:47;17.70;99.90
7155;DHT22;3619;53.784;10.440;2022-07-05T08:51:19;17.40;99.90
7155;DHT22;3619;53.784;10.440;2022-07-05T08:53:48;17.40;99.90
7155;DHT22;3619;53.784;10.440;2022-07-05T08:56:20;17.40;99.90
7155;DHT22;3619;53.784;10.440;2022-07-05T08:58:47;17.50;99.90
7155;DHT22;3619;53.784;10.440;2022-07-05T09:01:15;17.50;99.90
7155;DHT22;3619;53.784;10.440;2022-07-05T09:03:49;17.60;99.90
7155;DHT22;3619;53.784;10.440;2022-07-05T09:06:18;17.70;99.90
7155;DHT22;3619;53.784;10.440;2022-07-05T09:08:50;17.90;99.90
7155;DHT22;3619;53.784;10.440;2022-07-05T09:11:23;18.00;99.90
7155;DHT22;3619;53.784;10.440;2022-07-05T09:13:51;18.50;99.90
7155;DHT22;3619;53.784;10.440;2022-07-05T09:16:22;18.70;99.90
7155;DHT22;3619;53.784;10.440;2022-07-05T09:18:53;18.60;99.90
7155;DHT22;3619;53.784;10.440;2022-07-05T09:21:23;18.50;99.90
7155;DHT22;3619;53.784;10.440;2022-07-05T09:24:12;18.50;99.90
7155;DHT22;3619;53.784;10.440;2022-07-05T09:26:42;18.70;99.90
7155;DHT22;3619;53.784;10.440;2022-07-05T09:29:12;19.10;99.90
7155;DHT22;3619;53.784;10.440;2022-07-05T09:31:41;19.30;99.90
7155;DHT22;3619;53.784;10.440;2022-07-05T09:34:12;19.10;99.90
7155;DHT22;3619;53.784;10.440;2022-07-05T09:36:57;19.30;99.90
7155;DHT22;3619;53.784;10.440;2022-07-05T09:39:38;19.50;99.90
7155;DHT22;3619;53.784;10.440;2022-07-05T09:42:15;19.90;99.90
7155;DHT22;3619;53.784;10.440;2022-07-05T09:44:57;19.90;99.90
7155;DHT22;3619;53.784;10.440;2022-07-05T09:47:27;19.80;99.90
7155;DHT22;3619;53.784;10.440;2022-07-05T09:49:57;19.50;99.90
7155;DHT22;3619;53.784;10.440;2022-07-05T09:52:30;19.50;99.90
7155;DHT22;3619;53.784;10.440;2022-07-05T09:55:02;19.30;99.90
7155;DHT22;3619;53.784;10.440;2022-07-05T09:57:29;19.10;99.90
7155;DHT22;3619;53.784;10.440;2022-07-05T10:00:06;18.90;99.90
7155;DHT22;3619;53.784;10.440;2022-07-05T10:02:42;18.90;99.90
7155;DHT22;3619;53.784;10.440;2022-07-05T10:05:12;18.80;99.90
7155;DHT22;3619;53.784;10.440;2022-07-05T10:07:41;19.00;99.90
7155;DHT22;3619;53.784;10.440;2022-07-05T10:10:11;19.00;99.90
7155;DHT22;3619;53.784;10.440;2022-07-05T10:12:39;18.90;99.90
7155;DHT22;3619;53.784;10.440;2022-07-05T10:15:10;18.80;99.90
7155;DHT22;3619;53.784;10.440;2022-07-05T10:17:44;18.90;99.90
7155;DHT22;3619;53.784;10.440;2022-07-05T10:20:25;19.00;99.90
7155;DHT22;3619;53.784;10.440;2022-07-05T10:22:53;19.00;99.90
7155;DHT22;3619;53.784;10.440;2022-07-05T10:25:22;19.10;99.90
7155;DHT22;3619;53.784;10.440;2022-07-05T10:27:52;19.50;99.90
7155;DHT22;3619;53.784;10.440;2022-07-05T10:30:22;19.70;99.90
7155;DHT22;3619;53.784;10.440;2022-07-05T10:32:53;19.60;99.90
7155;DHT22;3619;53.784;10.440;2022-07-05T10:35:22;19.30;99.90
7155;DHT22;3619;53.784;10.440;2022-07-05T10:37:56;19.20;99.90
7155;DHT22;3619;53.784;10.440;2022-07-05T10:40:35;19.10;99.90
7155;DHT22;3619;53.784;10.440;2022-07-05T10:43:06;19.00;99.90
7155;DHT22;3619;53.784;10.440;2022-07-05T10:45:38;19.30;99.90
7155;DHT22;3619;53.784;10.440;2022-07-05T10:48:16;19.60;99.90
7155;DHT22;3619;53.784;10.440;2022-07-05T10:50:49;19.50;99.90
7155;DHT22;3619;53.784;10.440;2022-07-05T10:53:19;19.80;99.90
7155;DHT22;3619;53.784;10.440;2022-07-05T10:55:53;19.80;99.90
7155;DHT22;3619;53.784;10.440;2022-07-05T10:58:28;20.10;99.90
7155;DHT22;3619;53.784;10.440;2022-07-05T11:01:33;20.10;99.90
7155;DHT22;3619;53.784;10.440;2022-07-05T11:07:03;19.80;99.90
7155;DHT22;3619;53.784;10.440;2022-07-05T11:09:31;20.00;99.90
7155;DHT22;3619;53.784;10.440;2022-07-05T11:12:09;19.80;99.90
7155;DHT22;3619;53.784;10.440;2022-07-05T11:14:45;19.30;99.90
7155;DHT22;3619;53.784;10.440;2022-07-05T11:17:17;19.20;99.90
7155;DHT22;3619;53.784;10.440;2022-07-05T11:20:03;19.40;99.90
7155;DHT22;3619;53.784;10.440;2022-07-05T11:22:36;19.50;99.90
7155;DHT22;3619;53.784;10.440;2022-07-05T11:25:10;19.40;99.90
7155;DHT22;3619;53.784;10.440;2022-07-05T11:28:11;19.60;99.90
7155;DHT22;3619;53.784;10.440;2022-07-05T11:30:46;19.60;99.90
7155;DHT22;3619;53.784;10.440;2022-07-05T11:33:36;19.40;99.90
7155;DHT22;3619;53.784;10.440;2022-07-05T11:36:18;19.60;99.90
7155;DHT22;3619;53.784;10.440;2022-07-05T11:39:08;19.70;99.90
7155;DHT22;3619;53.784;10.440;2022-07-05T11:41:38;19.60;99.90
7155;DHT22;3619;53.784;10.440;2022-07-05T11:44:06;19.60;99.90
7155;DHT22;3619;53.784;10.440;2022-07-05T11:46:34;19.70;99.90
7155;DHT22;3619;53.784;10.440;2022-07-05T11:49:07;20.10;99.90
7155;DHT22;3619;53.784;10.440;2022-07-05T11:51:35;20.30;99.90
7155;DHT22;3619;53.784;10.440;2022-07-05T11:54:02;20.60;99.90
7155;DHT22;3619;53.784;10.440;2022-07-05T11:56:32;21.00;99.90
7155;DHT22;3619;53.784;10.440;2022-07-05T11:59:00;20.90;99.90
7155;DHT22;3619;53.784;10.440;2022-07-05T12:01:43;20.60;99.90
7155;DHT22;3619;53.784;10.440;2022-07-05T12:04:28;20.20;99.90
7155;DHT22;3619;53.784;10.440;2022-07-05T12:07:06;20.20;99.90
7155;DHT22;3619;53.784;10.440;2022-07-05T12:09:34;20.60;99.90
7155;DHT22;3619;53.784;10.440;2022-07-05T12:12:26;20.90;99.90
7155;DHT22;3619;53.784;10.440;2022-07-05T12:15:13;20.90;99.90
7155;DHT22;3619;53.784;10.440;2022-07-05T12:17:50;20.40;99.90
7155;DHT22;3619;53.784;10.440;2022-07-05T12:20:22;20.40;99.90
7155;DHT22;3619;53.784;10.440;2022-07-05T12:22:51;20.40;99.90
7155;DHT22;3619;53.784;10.440;2022-07-05T12:25:24;20.40;99.90
7155;DHT22;3619;53.784;10.440;2022-07-05T12:30:30;20.10;99.90
7155;DHT22;3619;53.784;10.440;2022-07-05T12:32:59;19.70;99.90
7155;DHT22;3619;53.784;10.440;2022-07-05T12:35:29;19.50;99.90
7155;DHT22;3619;53.784;10.440;2022-07-05T12:38:00;19.60;99.90
7155;DHT22;3619;53.784;10.440;2022-07-05T12:40:28;19.80;99.90
7155;DHT22;3619;53.784;10.440;2022-07-05T12:43:03;19.90;99.90
7155;DHT22;3619;53.784;10.440;2022-07-05T12:45:34;19.80;99.90
7155;DHT22;3619;53.784;10.440;2022-07-05T12:48:03;19.70;99.90
7155;DHT22;3619;53.784;10.440;2022-07-05T12:50:46;19.70;99.90
7155;DHT22;3619;53.784;10.440;2022-07-05T12:53:30;19.80;99.90
7155;DHT22;3619;53.784;10.440;2022-07-05T12:56:15;19.70;99.90
7155;DHT22;3619;53.784;10.440;2022-07-05T12:59:01;19.80;99.90
7155;DHT22;3619;53.784;10.440;2022-07-05T13:01:32;20.20;99.90
7155;DHT22;3619;53.784;10.440;2022-07-05T13:04:09;19.90;99.90
7155;DHT22;3619;53.784;10.440;2022-07-05T13:06:41;19.90;99.90
7155;DHT22;3619;53.784;10.440;2022-07-05T13:09:09;19.80;99.90
7155;DHT22;3619;53.784;10.440;2022-07-05T13:11:38;19.80;99.90
7155;DHT22;3619;53.784;10.440;2022-07-05T13:14:05;19.90;99.90
7155;DHT22;3619;53.784;10.440;2022-07-05T13:16:34;19.90;99.90
7155;DHT22;3619;53.784;10.440;2022-07-05T13:19:11;19.70;99.90
7155;DHT22;3619;53.784;10.440;2022-07-05T13:21:39;19.40;99.90
7155;DHT22;3619;53.784;10.440;2022-07-05T13:24:06;19.30;99.90
7155;DHT22;3619;53.784;10.440;2022-07-05T13:26:34;19.40;99.90
7155;DHT22;3619;53.784;10.440;2022-07-05T13:29:01;19.40;99.90
7155;DHT22;3619;53.784;10.440;2022-07-05T13:31:31;19.30;99.90
7155;DHT22;3619;53.784;10.440;2022-07-05T13:34:01;19.10;99.90
7155;DHT22;3619;53.784;10.440;2022-07-05T13:36:28;19.00;99.90
7155;DHT22;3619;53.784;10.440;2022-07-05T13:39:00;18.90;99.90
7155;DHT22;3619;53.784;10.440;2022-07-05T13:41:31;19.10;99.90
7155;DHT22;3619;53.784;10.440;2022-07-05T13:43:59;19.30;99.90
7155;DHT22;3619;53.784;10.440;2022-07-05T13:46:27;19.40;99.90
7155;DHT22;3619;53.784;10.440;2022-07-05T13:48:54;19.40;99.90
7155;DHT22;3619;53.784;10.440;2022-07-05T13:51:23;19.60;99.90
7155;DHT22;3619;53.784;10.440;2022-07-05T13:53:50;19.60;99.90
7155;DHT22;3619;53.784;10.440;2022-07-05T13:56:17;19.90;99.90
7155;DHT22;3619;53.784;10.440;2022-07-05T13:58:47;19.90;99.90
7155;DHT22;3619;53.784;10.440;2022-07-05T14:01:15;19.90;99.90
7155;DHT22;3619;53.784;10.440;2022-07-05T14:03:45;19.50;99.90
7155;DHT22;3619;53.784;10.440;2022-07-05T14:06:12;19.30;99.90
7155;DHT22;3619;53.784;10.440;2022-07-05T14:08:41;19.10;99.90
7155;DHT22;3619;53.784;10.440;2022-07-05T14:11:08;19.00;99.90
7155;DHT22;3619;53.784;10.440;2022-07-05T14:13:39;19.10;99.90
7155;DHT22;3619;53.784;10.440;2022-07-05T14:16:14;19.30;99.90
7155;DHT22;3619;53.784;10.440;2022-07-05T14:18:45;19.30;99.90
7155;DHT22;3619;53.784;10.440;2022-07-05T14:21:12;19.10;99.90
7155;DHT22;3619;53.784;10.440;2022-07-05T14:23:43;19.20;99.90
7155;DHT22;3619;53.784;10.440;2022-07-05T14:26:12;19.10;99.90
7155;DHT22;3619;53.784;10.440;2022-07-05T14:28:39;19.20;99.90
7155;DHT22;3619;53.784;10.440;2022-07-05T14:31:07;19.10;99.90
7155;DHT22;3619;53.784;10.440;2022-07-05T14:33:34;18.90;99.90
7155;DHT22;3619;53.784;10.440;2022-07-05T14:36:05;18.80;99.90
7155;DHT22;3619;53.784;10.440;2022-07-05T14:38:32;18.70;99.90
7155;DHT22;3619;53.784;10.440;2022-07-05T14:41:01;18.80;99.90
7155;DHT22;3619;53.784;10.440;2022-07-05T14:43:28;18.80;99.90
7155;DHT22;3619;53.784;10.440;2022-07-05T14:45:58;18.70;99.90
7155;DHT22;3619;53.784;10.440;2022-07-05T14:48:27;18.70;99.90
7155;DHT22;3619;53.784;10.440;2022-07-05T14:50:54;18.80;99.90
7155;DHT22;3619;53.784;10.440;2022-07-05T14:53:21;18.70;99.90
7155;DHT22;3619;53.784;10.440;2022-07-05T14:55:48;18.90;99.90
7155;DHT22;3619;53.784;10.440;2022-07-05T14:58:17;18.80;99.90
7155;DHT22;3619;53.784;10.440;2022-07-05T15:00:44;18.90;99.90
7155;DHT22;3619;53.784;10.440;2022-07-05T15:03:12;19.10;99.90
7155;DHT22;3619;53.784;10.440;2022-07-05T15:05:39;19.20;99.90
7155;DHT22;3619;53.784;10.440;2022-07-05T15:08:21;19.20;99.90
7155;DHT22;3619;53.784;10.440;2022-07-05T15:10:54;19.20;99.90
7155;DHT22;3619;53.784;10.440;2022-07-05T15:13:24;19.00;99.90
7155;DHT22;3619;53.784;10.440;2022-07-05T15:15:52;18.80;99.90
7155;DHT22;3619;53.784;10.440;2022-07-05T15:18:25;18.70;99.90
7155;DHT22;3619;53.784;10.440;2022-07-05T15:20:52;18.50;99.90
7155;DHT22;3619;53.784;10.440;2022-07-05T15:23:22;18.60;99.90
7155;DHT22;3619;53.784;10.440;2022-07-05T15:25:53;18.70;99.90
7155;DHT22;3619;53.784;10.440;2022-07-05T15:28:20;18.70;99.90
7155;DHT22;3619;53.784;10.440;2022-07-05T15:30:50;18.70;99.90
7155;DHT22;3619;53.784;10.440;2022-07-05T15:33:17;18.60;99.90
7155;DHT22;3619;53.784;10.440;2022-07-05T15:35:45;18.60;99.90
7155;DHT22;3619;53.784;10.440;2022-07-05T15:38:13;18.60;99.90
7155;DHT22;3619;53.784;10.440;2022-07-05T15:40:41;18.60;99.90
7155;DHT22;3619;53.784;10.440;2022-07-05T15:43:08;18.60;99.90
7155;DHT22;3619;53.784;10.440;2022-07-05T15:45:36;18.50;99.90
7155;DHT22;3619;53.784;10.440;2022-07-05T15:48:05;18.70;99.90
7155;DHT22;3619;53.784;10.440;2022-07-05T15:50:32;19.20;99.90
7155;DHT22;3619;53.784;10.440;2022-07-05T15:52:59;19.50;99.90
7155;DHT22;3619;53.784;10.440;2022-07-05T15:55:26;19.70;99.90
7155;DHT22;3619;53.784;10.440;2022-07-05T15:57:54;19.50;99.90
7155;DHT22;3619;53.784;10.440;2022-07-05T16:00:22;19.70;99.90
7155;DHT22;3619;53.784;10.440;2022-07-05T16:02:59;19.90;99.90
7155;DHT22;3619;53.784;10.440;2022-07-05T16:05:32;19.90;99.90
7155;DHT22;3619;53.784;10.440;2022-07-05T16:07:59;19.90;99.90
7155;DHT22;3619;53.784;10.440;2022-07-05T16:10:26;19.60;99.90
7155;DHT22;3619;53.784;10.440;2022-07-05T16:12:57;19.50;99.90
7155;DHT22;3619;53.784;10.440;2022-07-05T16:15:28;19.10;99.90
7155;DHT22;3619;53.784;10.440;2022-07-05T16:18:13;18.80;99.90
7155;DHT22;3619;53.784;10.440;2022-07-05T16:20:42;18.90;99.90
7155;DHT22;3619;53.784;10.440;2022-07-05T16:23:09;19.20;99.90
7155;DHT22;3619;53.784;10.440;2022-07-05T16:25:36;19.10;99.90
7155;DHT22;3619;53.784;10.440;2022-07-05T16:28:04;19.00;99.90